sensor_id;sensor_type;location;lat;lon;timestamp;P1;durP1;ratioP1;P2;durP2;ratioP2
21825;SDS011;11075;47.944;11.776;2023-06-10T00:00:42;7.55;;;6.78;;
21825;SDS011;11075;47.944;11.776;2023-06-10T00:03:10;9.80;;;7.10;;
21825;SDS011;11075;47.944;11.776;2023-06-10T00:05:37;10.30;;;6.88;;
21825;SDS011;11075;47.944;11.776;2023-06-10T00:08:08;8.20;;;6.85;;
21825;SDS011;11075;47.944;11.776;2023-06-10T00:10:35;10.57;;;7.50;;
21825;SDS011;11075;47.944;11.776;2023-06-10T00:13:06;8.47;;;6.77;;
21825;SDS011;11075;47.944;11.776;2023-06-10T00:15:37;7.33;;;6.67;;
21825;SDS011;11075;47.944;11.776;2023-06-10T00:18:04;7.70;;;6.90;;
21825;SDS011;11075;47.944;11.776;2023-06-10T00:20:31;7.30;;;6.60;;
21825;SDS011;11075;47.944;11.776;2023-06-10T00:22:59;8.75;;;6.90;;
21825;SDS011;11075;47.944;11.776;2023-06-10T00:25:28;8.77;;;6.95;;
21825;SDS011;11075;47.944;11.776;2023-06-10T00:27:55;11.60;;;7.85;;
21825;SDS011;11075;47.944;11.776;2023-06-10T00:30:22;10.25;;;7.95;;
21825;SDS011;11075;47.944;11.776;2023-06-10T00:32:49;7.43;;;6.70;;
21825;SDS011;11075;47.944;11.776;2023-06-10T00:35:16;9.55;;;7.28;;
21825;SDS011;11075;47.944;11.776;2023-06-10T00:37:43;8.38;;;7.47;;
21825;SDS011;11075;47.944;11.776;2023-06-10T00:40:10;9.40;;;7.47;;
21825;SDS011;11075;47.944;11.776;2023-06-10T00:42:37;8.05;;;6.95;;
21825;SDS011;11075;47.944;11.776;2023-06-10T00:45:05;15.52;;;7.30;;
21825;SDS011;11075;47.944;11.776;2023-06-10T00:47:35;8.00;;;7.20;;
21825;SDS011;11075;47.944;11.776;2023-06-10T00:50:02;10.02;;;7.82;;
21825;SDS011;11075;47.944;11.776;2023-06-10T00:52:29;9.68;;;7.28;;
21825;SDS011;11075;47.944;11.776;2023-06-10T00:54:57;8.53;;;7.60;;
21825;SDS011;11075;47.944;11.776;2023-06-10T00:57:25;12.13;;;8.03;;
21825;SDS011;11075;47.944;11.776;2023-06-10T00:59:53;10.17;;;7.53;;
21825;SDS011;11075;47.944;11.776;2023-06-10T01:02:20;8.95;;;7.65;;
21825;SDS011;11075;47.944;11.776;2023-06-10T01:04:47;8.73;;;7.60;;
21825;SDS011;11075;47.944;11.776;2023-06-10T01:07:26;11.70;;;8.77;;
21825;SDS011;11075;47.944;11.776;2023-06-10T01:10:02;9.30;;;8.30;;
21825;SDS011;11075;47.944;11.776;2023-06-10T01:12:39;9.87;;;8.73;;
21825;SDS011;11075;47.944;11.776;2023-06-10T01:15:16;10.10;;;8.60;;
21825;SDS011;11075;47.944;11.776;2023-06-10T01:17:57;9.13;;;8.23;;
21825;SDS011;11075;47.944;11.776;2023-06-10T01:20:31;11.13;;;8.57;;
21825;SDS011;11075;47.944;11.776;2023-06-10T01:22:59;9.55;;;8.50;;
21825;SDS011;11075;47.944;11.776;2023-06-10T01:25:27;10.43;;;8.53;;
21825;SDS011;11075;47.944;11.776;2023-06-10T01:30:38;11.13;;;8.20;;
21825;SDS011;11075;47.944;11.776;2023-06-10T01:33:13;10.47;;;8.77;;
21825;SDS011;11075;47.944;11.776;2023-06-10T01:35:45;9.98;;;8.38;;
21825;SDS011;11075;47.944;11.776;2023-06-10T01:38:13;13.77;;;8.43;;
21825;SDS011;11075;47.944;11.776;2023-06-10T01:40:42;10.20;;;8.60;;
21825;SDS011;11075;47.944;11.776;2023-06-10T01:43:09;9.73;;;8.03;;
21825;SDS011;11075;47.944;11.776;2023-06-10T01:45:36;13.83;;;9.10;;
21825;SDS011;11075;47.944;11.776;2023-06-10T01:48:03;10.87;;;9.10;;
21825;SDS011;11075;47.944;11.776;2023-06-10T01:50:30;12.43;;;8.53;;
21825;SDS011;11075;47.944;11.776;2023-06-10T01:52:57;10.20;;;9.10;;
21825;SDS011;11075;47.944;11.776;2023-06-10T01:55:26;11.83;;;8.80;;
21825;SDS011;11075;47.944;11.776;2023-06-10T01:57:53;11.23;;;9.18;;
21825;SDS011;11075;47.944;11.776;2023-06-10T02:00:19;10.13;;;8.75;;
21825;SDS011;11075;47.944;11.776;2023-06-10T02:02:47;9.83;;;8.27;;
21825;SDS011;11075;47.944;11.776;2023-06-10T02:05:14;10.47;;;8.67;;
21825;SDS011;11075;47.944;11.776;2023-06-10T02:07:41;9.88;;;8.10;;
21825;SDS011;11075;47.944;11.776;2023-06-10T02:10:08;9.33;;;8.33;;
21825;SDS011;11075;47.944;11.776;2023-06-10T02:12:35;10.13;;;8.18;;
21825;SDS011;11075;47.944;11.776;2023-06-10T02:15:02;10.67;;;8.30;;
21825;SDS011;11075;47.944;11.776;2023-06-10T02:17:29;11.00;;;7.83;;
21825;SDS011;11075;47.944;11.776;2023-06-10T02:19:56;12.50;;;9.70;;
21825;SDS011;11075;47.944;11.776;2023-06-10T02:22:23;10.13;;;8.93;;
21825;SDS011;11075;47.944;11.776;2023-06-10T02:24:50;10.03;;;8.37;;
21825;SDS011;11075;47.944;11.776;2023-06-10T02:27:17;9.90;;;8.23;;
21825;SDS011;11075;47.944;11.776;2023-06-10T02:29:44;10.20;;;9.10;;
21825;SDS011;11075;47.944;11.776;2023-06-10T02:32:11;9.17;;;8.10;;
21825;SDS011;11075;47.944;11.776;2023-06-10T02:34:40;10.20;;;8.70;;
21825;SDS011;11075;47.944;11.776;2023-06-10T02:37:06;11.40;;;8.80;;
21825;SDS011;11075;47.944;11.776;2023-06-10T02:39:34;10.03;;;8.40;;
21825;SDS011;11075;47.944;11.776;2023-06-10T02:42:05;8.73;;;7.73;;
21825;SDS011;11075;47.944;11.776;2023-06-10T02:44:33;9.53;;;7.97;;
21825;SDS011;11075;47.944;11.776;2023-06-10T02:47:00;9.30;;;8.30;;
21825;SDS011;11075;47.944;11.776;2023-06-10T02:49:27;11.07;;;7.83;;
21825;SDS011;11075;47.944;11.776;2023-06-10T02:51:55;8.87;;;7.97;;
21825;SDS011;11075;47.944;11.776;2023-06-10T02:54:23;8.73;;;7.53;;
21825;SDS011;11075;47.944;11.776;2023-06-10T02:56:52;10.18;;;8.48;;
21825;SDS011;11075;47.944;11.776;2023-06-10T02:59:24;9.17;;;8.17;;
21825;SDS011;11075;47.944;11.776;2023-06-10T03:01:51;9.77;;;8.57;;
21825;SDS011;11075;47.944;11.776;2023-06-10T03:04:18;8.60;;;7.67;;
21825;SDS011;11075;47.944;11.776;2023-06-10T03:06:53;12.70;;;8.27;;
21825;SDS011;11075;47.944;11.776;2023-06-10T03:09:25;10.33;;;8.07;;
21825;SDS011;11075;47.944;11.776;2023-06-10T03:11:55;9.97;;;8.10;;
21825;SDS011;11075;47.944;11.776;2023-06-10T03:14:22;10.67;;;8.27;;
21825;SDS011;11075;47.944;11.776;2023-06-10T03:16:51;9.60;;;8.30;;
21825;SDS011;11075;47.944;11.776;2023-06-10T03:19:19;10.20;;;8.13;;
21825;SDS011;11075;47.944;11.776;2023-06-10T03:21:49;9.80;;;8.47;;
21825;SDS011;11075;47.944;11.776;2023-06-10T03:24:21;9.13;;;7.43;;
21825;SDS011;11075;47.944;11.776;2023-06-10T03:26:48;11.07;;;8.10;;
21825;SDS011;11075;47.944;11.776;2023-06-10T03:29:16;9.77;;;8.63;;
21825;SDS011;11075;47.944;11.776;2023-06-10T03:31:43;9.47;;;8.33;;
21825;SDS011;11075;47.944;11.776;2023-06-10T03:34:10;11.00;;;8.50;;
21825;SDS011;11075;47.944;11.776;2023-06-10T03:36:37;11.53;;;9.27;;
21825;SDS011;11075;47.944;11.776;2023-06-10T03:39:07;12.23;;;8.97;;
21825;SDS011;11075;47.944;11.776;2023-06-10T03:41:35;8.67;;;7.77;;
21825;SDS011;11075;47.944;11.776;2023-06-10T03:44:03;12.60;;;8.53;;
21825;SDS011;11075;47.944;11.776;2023-06-10T03:46:30;10.13;;;8.27;;
21825;SDS011;11075;47.944;11.776;2023-06-10T03:48:57;14.47;;;8.67;;
21825;SDS011;11075;47.944;11.776;2023-06-10T03:51:27;9.47;;;8.40;;
21825;SDS011;11075;47.944;11.776;2023-06-10T03:53:56;10.40;;;8.57;;
21825;SDS011;11075;47.944;11.776;2023-06-10T03:56:23;10.60;;;8.20;;
21825;SDS011;11075;47.944;11.776;2023-06-10T03:58:50;11.57;;;8.90;;
21825;SDS011;11075;47.944;11.776;2023-06-10T04:01:16;10.38;;;7.93;;
21825;SDS011;11075;47.944;11.776;2023-06-10T04:03:47;10.40;;;8.33;;
21825;SDS011;11075;47.944;11.776;2023-06-10T04:06:15;11.47;;;7.80;;
21825;SDS011;11075;47.944;11.776;2023-06-10T04:08:42;10.30;;;9.17;;
21825;SDS011;11075;47.944;11.776;2023-06-10T04:11:09;10.90;;;8.27;;
21825;SDS011;11075;47.944;11.776;2023-06-10T04:13:36;9.43;;;8.03;;
21825;SDS011;11075;47.944;11.776;2023-06-10T04:16:03;8.55;;;7.70;;
21825;SDS011;11075;47.944;11.776;2023-06-10T04:18:30;8.43;;;7.40;;
21825;SDS011;11075;47.944;11.776;2023-06-10T04:21:02;8.77;;;7.87;;
21825;SDS011;11075;47.944;11.776;2023-06-10T04:23:30;9.43;;;7.68;;
21825;SDS011;11075;47.944;11.776;2023-06-10T04:25:57;9.47;;;8.13;;
21825;SDS011;11075;47.944;11.776;2023-06-10T04:28:25;10.20;;;7.78;;
21825;SDS011;11075;47.944;11.776;2023-06-10T04:30:53;8.68;;;7.55;;
21825;SDS011;11075;47.944;11.776;2023-06-10T04:33:20;8.83;;;7.30;;
21825;SDS011;11075;47.944;11.776;2023-06-10T04:35:47;12.40;;;8.37;;
21825;SDS011;11075;47.944;11.776;2023-06-10T04:38:15;9.07;;;8.10;;
21825;SDS011;11075;47.944;11.776;2023-06-10T04:40:43;9.75;;;7.93;;
21825;SDS011;11075;47.944;11.776;2023-06-10T04:43:12;9.37;;;8.13;;
21825;SDS011;11075;47.944;11.776;2023-06-10T04:45:39;9.48;;;7.88;;
21825;SDS011;11075;47.944;11.776;2023-06-10T04:48:06;14.27;;;8.98;;
21825;SDS011;11075;47.944;11.776;2023-06-10T04:50:34;12.43;;;9.75;;
21825;SDS011;11075;47.944;11.776;2023-06-10T04:53:01;11.38;;;10.00;;
21825;SDS011;11075;47.944;11.776;2023-06-10T04:55:28;13.05;;;11.20;;
21825;SDS011;11075;47.944;11.776;2023-06-10T04:57:55;15.65;;;9.88;;
21825;SDS011;11075;47.944;11.776;2023-06-10T05:00:22;12.93;;;11.23;;
21825;SDS011;11075;47.944;11.776;2023-06-10T05:02:49;22.05;;;9.30;;
21825;SDS011;11075;47.944;11.776;2023-06-10T05:05:16;16.05;;;12.10;;
21825;SDS011;11075;47.944;11.776;2023-06-10T05:07:43;12.50;;;11.20;;
21825;SDS011;11075;47.944;11.776;2023-06-10T05:10:10;14.27;;;12.05;;
21825;SDS011;11075;47.944;11.776;2023-06-10T05:12:38;11.82;;;10.32;;
21825;SDS011;11075;47.944;11.776;2023-06-10T05:15:06;12.80;;;9.88;;
21825;SDS011;11075;47.944;11.776;2023-06-10T05:17:34;11.02;;;9.90;;
21825;SDS011;11075;47.944;11.776;2023-06-10T05:20:02;13.00;;;10.55;;
21825;SDS011;11075;47.944;11.776;2023-06-10T05:22:29;13.07;;;11.60;;
21825;SDS011;11075;47.944;11.776;2023-06-10T05:24:56;11.77;;;10.57;;
21825;SDS011;11075;47.944;11.776;2023-06-10T05:27:23;13.10;;;11.63;;
21825;SDS011;11075;47.944;11.776;2023-06-10T05:29:50;12.63;;;11.32;;
21825;SDS011;11075;47.944;11.776;2023-06-10T05:32:18;12.48;;;10.93;;
21825;SDS011;11075;47.944;11.776;2023-06-10T05:34:45;11.70;;;10.50;;
21825;SDS011;11075;47.944;11.776;2023-06-10T05:37:12;12.15;;;9.80;;
21825;SDS011;11075;47.944;11.776;2023-06-10T05:39:39;14.70;;;12.57;;
21825;SDS011;11075;47.944;11.776;2023-06-10T05:42:06;18.20;;;12.07;;
21825;SDS011;11075;47.944;11.776;2023-06-10T05:44:35;13.13;;;10.60;;
21825;SDS011;11075;47.944;11.776;2023-06-10T05:47:02;13.93;;;11.27;;
21825;SDS011;11075;47.944;11.776;2023-06-10T05:49:29;13.82;;;11.60;;
21825;SDS011;11075;47.944;11.776;2023-06-10T05:51:56;16.88;;;11.60;;
21825;SDS011;11075;47.944;11.776;2023-06-10T05:54:25;13.25;;;11.18;;
21825;SDS011;11075;47.944;11.776;2023-06-10T05:56:55;18.13;;;10.80;;
21825;SDS011;11075;47.944;11.776;2023-06-10T05:59:22;13.57;;;11.73;;
21825;SDS011;11075;47.944;11.776;2023-06-10T06:01:49;14.30;;;10.80;;
21825;SDS011;11075;47.944;11.776;2023-06-10T06:04:16;14.77;;;11.48;;
21825;SDS011;11075;47.944;11.776;2023-06-10T06:06:43;14.50;;;11.63;;
21825;SDS011;11075;47.944;11.776;2023-06-10T06:09:10;13.90;;;11.82;;
21825;SDS011;11075;47.944;11.776;2023-06-10T06:11:37;13.10;;;11.13;;
21825;SDS011;11075;47.944;11.776;2023-06-10T06:14:03;12.98;;;11.60;;
21825;SDS011;11075;47.944;11.776;2023-06-10T06:16:31;13.60;;;11.35;;
21825;SDS011;11075;47.944;11.776;2023-06-10T06:18:59;15.02;;;11.23;;
21825;SDS011;11075;47.944;11.776;2023-06-10T06:21:26;13.80;;;10.57;;
21825;SDS011;11075;47.944;11.776;2023-06-10T06:23:52;15.77;;;10.65;;
21825;SDS011;11075;47.944;11.776;2023-06-10T06:26:19;12.70;;;11.20;;
21825;SDS011;11075;47.944;11.776;2023-06-10T06:28:47;11.48;;;10.25;;
21825;SDS011;11075;47.944;11.776;2023-06-10T06:31:14;14.13;;;10.38;;
21825;SDS011;11075;47.944;11.776;2023-06-10T06:33:40;12.95;;;10.57;;
21825;SDS011;11075;47.944;11.776;2023-06-10T06:36:07;13.15;;;10.13;;
21825;SDS011;11075;47.944;11.776;2023-06-10T06:38:34;11.38;;;10.20;;
21825;SDS011;11075;47.944;11.776;2023-06-10T06:41:01;12.07;;;10.15;;
21825;SDS011;11075;47.944;11.776;2023-06-10T06:43:29;11.80;;;10.15;;
21825;SDS011;11075;47.944;11.776;2023-06-10T06:46:09;11.45;;;10.07;;
21825;SDS011;11075;47.944;11.776;2023-06-10T06:48:36;12.02;;;10.13;;
21825;SDS011;11075;47.944;11.776;2023-06-10T06:51:03;10.55;;;9.10;;
21825;SDS011;11075;47.944;11.776;2023-06-10T06:53:30;14.32;;;10.18;;
21825;SDS011;11075;47.944;11.776;2023-06-10T06:55:59;11.80;;;10.07;;
21825;SDS011;11075;47.944;11.776;2023-06-10T06:58:26;10.98;;;9.88;;
21825;SDS011;11075;47.944;11.776;2023-06-10T07:00:53;11.40;;;10.23;;
21825;SDS011;11075;47.944;11.776;2023-06-10T07:03:21;10.80;;;8.75;;
21825;SDS011;11075;47.944;11.776;2023-06-10T07:05:48;10.52;;;9.10;;
21825;SDS011;11075;47.944;11.776;2023-06-10T07:08:14;13.02;;;8.57;;
21825;SDS011;11075;47.944;11.776;2023-06-10T07:10:41;10.55;;;9.02;;
21825;SDS011;11075;47.944;11.776;2023-06-10T07:13:08;11.05;;;8.70;;
21825;SDS011;11075;47.944;11.776;2023-06-10T07:15:38;10.40;;;8.43;;
21825;SDS011;11075;47.944;11.776;2023-06-10T07:18:05;9.77;;;8.77;;
21825;SDS011;11075;47.944;11.776;2023-06-10T07:20:32;10.57;;;9.07;;
21825;SDS011;11075;47.944;11.776;2023-06-10T07:22:59;86.95;;;38.10;;
21825;SDS011;11075;47.944;11.776;2023-06-10T07:25:26;16.58;;;11.95;;
21825;SDS011;11075;47.944;11.776;2023-06-10T07:27:52;12.63;;;9.02;;
21825;SDS011;11075;47.944;11.776;2023-06-10T07:30:19;10.48;;;8.55;;
21825;SDS011;11075;47.944;11.776;2023-06-10T07:32:46;11.50;;;8.68;;
21825;SDS011;11075;47.944;11.776;2023-06-10T07:35:13;15.60;;;9.48;;
21825;SDS011;11075;47.944;11.776;2023-06-10T07:37:40;10.20;;;8.90;;
21825;SDS011;11075;47.944;11.776;2023-06-10T07:40:07;9.63;;;8.55;;
21825;SDS011;11075;47.944;11.776;2023-06-10T07:42:35;11.15;;;9.10;;
21825;SDS011;11075;47.944;11.776;2023-06-10T07:45:05;10.05;;;8.60;;
21825;SDS011;11075;47.944;11.776;2023-06-10T07:47:33;11.43;;;8.20;;
21825;SDS011;11075;47.944;11.776;2023-06-10T07:50:00;10.45;;;7.80;;
21825;SDS011;11075;47.944;11.776;2023-06-10T07:52:27;9.52;;;7.63;;
21825;SDS011;11075;47.944;11.776;2023-06-10T07:54:55;8.20;;;6.90;;
21825;SDS011;11075;47.944;11.776;2023-06-10T07:57:22;9.00;;;7.60;;
21825;SDS011;11075;47.944;11.776;2023-06-10T07:59:48;8.63;;;6.70;;
21825;SDS011;11075;47.944;11.776;2023-06-10T08:02:15;8.98;;;7.57;;
21825;SDS011;11075;47.944;11.776;2023-06-10T08:04:42;8.45;;;7.45;;
21825;SDS011;11075;47.944;11.776;2023-06-10T08:07:09;12.98;;;8.30;;
21825;SDS011;11075;47.944;11.776;2023-06-10T08:09:36;7.45;;;5.93;;
21825;SDS011;11075;47.944;11.776;2023-06-10T08:12:02;8.77;;;6.85;;
21825;SDS011;11075;47.944;11.776;2023-06-10T08:14:30;6.95;;;6.13;;
21825;SDS011;11075;47.944;11.776;2023-06-10T08:16:56;7.13;;;6.07;;
21825;SDS011;11075;47.944;11.776;2023-06-10T08:19:23;7.03;;;6.32;;
21825;SDS011;11075;47.944;11.776;2023-06-10T08:21:50;6.75;;;5.88;;
21825;SDS011;11075;47.944;11.776;2023-06-10T08:24:17;6.82;;;5.05;;
21825;SDS011;11075;47.944;11.776;2023-06-10T08:26:45;5.93;;;4.60;;
21825;SDS011;11075;47.944;11.776;2023-06-10T08:29:12;6.03;;;5.10;;
21825;SDS011;11075;47.944;11.776;2023-06-10T08:31:43;8.68;;;5.75;;
21825;SDS011;11075;47.944;11.776;2023-06-10T08:34:10;5.40;;;4.90;;
21825;SDS011;11075;47.944;11.776;2023-06-10T08:36:38;5.28;;;4.78;;
21825;SDS011;11075;47.944;11.776;2023-06-10T08:39:05;5.32;;;4.82;;
21825;SDS011;11075;47.944;11.776;2023-06-10T08:41:34;7.90;;;4.80;;
21825;SDS011;11075;47.944;11.776;2023-06-10T08:44:06;6.50;;;5.07;;
21825;SDS011;11075;47.944;11.776;2023-06-10T08:46:34;4.28;;;3.88;;
21825;SDS011;11075;47.944;11.776;2023-06-10T08:49:03;3.88;;;3.40;;
21825;SDS011;11075;47.944;11.776;2023-06-10T08:51:34;5.55;;;4.70;;
21825;SDS011;11075;47.944;11.776;2023-06-10T08:54:09;6.25;;;4.70;;
21825;SDS011;11075;47.944;11.776;2023-06-10T08:56:41;6.40;;;4.07;;
21825;SDS011;11075;47.944;11.776;2023-06-10T08:59:10;6.60;;;5.38;;
21825;SDS011;11075;47.944;11.776;2023-06-10T09:01:38;5.28;;;4.78;;
21825;SDS011;11075;47.944;11.776;2023-06-10T09:04:05;11.23;;;4.15;;
21825;SDS011;11075;47.944;11.776;2023-06-10T09:06:32;4.00;;;3.60;;
21825;SDS011;11075;47.944;11.776;2023-06-10T09:09:00;6.80;;;4.20;;
21825;SDS011;11075;47.944;11.776;2023-06-10T09:11:29;4.75;;;4.35;;
21825;SDS011;11075;47.944;11.776;2023-06-10T09:13:56;6.90;;;3.90;;
21825;SDS011;11075;47.944;11.776;2023-06-10T09:16:24;5.05;;;4.55;;
21825;SDS011;11075;47.944;11.776;2023-06-10T09:18:51;5.95;;;4.53;;
21825;SDS011;11075;47.944;11.776;2023-06-10T09:21:22;8.65;;;3.97;;
21825;SDS011;11075;47.944;11.776;2023-06-10T09:23:49;6.55;;;4.55;;
21825;SDS011;11075;47.944;11.776;2023-06-10T09:26:17;4.63;;;4.22;;
21825;SDS011;11075;47.944;11.776;2023-06-10T09:28:47;5.57;;;4.93;;
21825;SDS011;11075;47.944;11.776;2023-06-10T09:31:14;5.25;;;4.68;;
21825;SDS011;11075;47.944;11.776;2023-06-10T09:33:45;8.85;;;5.13;;
21825;SDS011;11075;47.944;11.776;2023-06-10T09:36:11;5.40;;;4.88;;
21825;SDS011;11075;47.944;11.776;2023-06-10T09:38:49;8.88;;;4.93;;
21825;SDS011;11075;47.944;11.776;2023-06-10T09:41:17;5.50;;;5.00;;
21825;SDS011;11075;47.944;11.776;2023-06-10T09:43:45;7.13;;;5.60;;
21825;SDS011;11075;47.944;11.776;2023-06-10T09:46:16;5.03;;;4.60;;
21825;SDS011;11075;47.944;11.776;2023-06-10T09:48:45;4.70;;;4.30;;
21825;SDS011;11075;47.944;11.776;2023-06-10T09:51:13;4.93;;;4.00;;
21825;SDS011;11075;47.944;11.776;2023-06-10T09:53:41;3.03;;;2.83;;
21825;SDS011;11075;47.944;11.776;2023-06-10T09:56:08;3.45;;;3.15;;
21825;SDS011;11075;47.944;11.776;2023-06-10T09:58:39;3.10;;;2.80;;
21825;SDS011;11075;47.944;11.776;2023-06-10T10:01:10;4.20;;;3.72;;
21825;SDS011;11075;47.944;11.776;2023-06-10T10:03:45;4.07;;;2.70;;
21825;SDS011;11075;47.944;11.776;2023-06-10T10:06:14;2.80;;;2.60;;
21825;SDS011;11075;47.944;11.776;2023-06-10T10:08:42;4.65;;;3.15;;
21825;SDS011;11075;47.944;11.776;2023-06-10T10:11:10;3.45;;;2.80;;
21825;SDS011;11075;47.944;11.776;2023-06-10T10:13:38;4.95;;;3.30;;
21825;SDS011;11075;47.944;11.776;2023-06-10T10:16:08;3.75;;;2.78;;
21825;SDS011;11075;47.944;11.776;2023-06-10T10:18:41;3.40;;;3.10;;
21825;SDS011;11075;47.944;11.776;2023-06-10T10:21:12;3.47;;;3.17;;
21825;SDS011;11075;47.944;11.776;2023-06-10T10:23:44;2.95;;;2.63;;
21825;SDS011;11075;47.944;11.776;2023-06-10T10:26:34;3.13;;;2.83;;
21825;SDS011;11075;47.944;11.776;2023-06-10T10:29:10;3.58;;;3.28;;
21825;SDS011;11075;47.944;11.776;2023-06-10T10:31:41;3.08;;;2.67;;
21825;SDS011;11075;47.944;11.776;2023-06-10T10:34:18;3.10;;;2.80;;
21825;SDS011;11075;47.944;11.776;2023-06-10T10:36:48;4.30;;;3.10;;
21825;SDS011;11075;47.944;11.776;2023-06-10T10:39:16;3.15;;;2.92;;
21825;SDS011;11075;47.944;11.776;2023-06-10T10:41:44;3.38;;;3.15;;
21825;SDS011;11075;47.944;11.776;2023-06-10T10:44:13;3.38;;;3.08;;
21825;SDS011;11075;47.944;11.776;2023-06-10T10:46:44;5.30;;;3.60;;
21825;SDS011;11075;47.944;11.776;2023-06-10T10:49:15;3.63;;;3.25;;
21825;SDS011;11075;47.944;11.776;2023-06-10T10:52:02;3.60;;;3.22;;
21825;SDS011;11075;47.944;11.776;2023-06-10T10:54:32;4.30;;;3.97;;
21825;SDS011;11075;47.944;11.776;2023-06-10T10:57:10;9.80;;;4.40;;
21825;SDS011;11075;47.944;11.776;2023-06-10T10:59:58;5.78;;;3.90;;
21825;SDS011;11075;47.944;11.776;2023-06-10T11:05:06;4.13;;;3.70;;
21825;SDS011;11075;47.944;11.776;2023-06-10T11:07:34;4.57;;;3.38;;
21825;SDS011;11075;47.944;11.776;2023-06-10T11:10:12;13.13;;;4.10;;
21825;SDS011;11075;47.944;11.776;2023-06-10T11:15:13;3.40;;;3.10;;
21825;SDS011;11075;47.944;11.776;2023-06-10T11:28:40;2.72;;;2.53;;
21825;SDS011;11075;47.944;11.776;2023-06-10T11:34:14;3.58;;;2.60;;
21825;SDS011;11075;47.944;11.776;2023-06-10T11:36:42;3.38;;;2.72;;
21825;SDS011;11075;47.944;11.776;2023-06-10T11:39:12;3.65;;;2.72;;
21825;SDS011;11075;47.944;11.776;2023-06-10T11:41:39;3.55;;;2.80;;
21825;SDS011;11075;47.944;11.776;2023-06-10T11:44:10;3.05;;;2.85;;
21825;SDS011;11075;47.944;11.776;2023-06-10T11:46:42;2.70;;;2.50;;
21825;SDS011;11075;47.944;11.776;2023-06-10T11:49:11;3.00;;;2.58;;
21825;SDS011;11075;47.944;11.776;2023-06-10T11:51:39;7.22;;;3.65;;
21825;SDS011;11075;47.944;11.776;2023-06-10T11:54:08;3.97;;;2.38;;
21825;SDS011;11075;47.944;11.776;2023-06-10T11:56:35;2.80;;;2.60;;
21825;SDS011;11075;47.944;11.776;2023-06-10T11:59:03;3.13;;;2.70;;
21825;SDS011;11075;47.944;11.776;2023-06-10T12:01:34;2.92;;;2.50;;
21825;SDS011;11075;47.944;11.776;2023-06-10T12:04:07;4.07;;;2.92;;
21825;SDS011;11075;47.944;11.776;2023-06-10T12:06:48;2.88;;;2.55;;
21825;SDS011;11075;47.944;11.776;2023-06-10T12:09:29;2.80;;;2.60;;
21825;SDS011;11075;47.944;11.776;2023-06-10T12:11:57;6.00;;;2.70;;
21825;SDS011;11075;47.944;11.776;2023-06-10T12:20:00;5.15;;;2.60;;
21825;SDS011;11075;47.944;11.776;2023-06-10T12:22:35;3.28;;;2.40;;
21825;SDS011;11075;47.944;11.776;2023-06-10T12:25:09;2.58;;;2.38;;
21825;SDS011;11075;47.944;11.776;2023-06-10T12:27:39;4.53;;;3.15;;
21825;SDS011;11075;47.944;11.776;2023-06-10T12:30:18;2.35;;;2.20;;
21825;SDS011;11075;47.944;11.776;2023-06-10T12:32:51;2.58;;;2.38;;
21825;SDS011;11075;47.944;11.776;2023-06-10T12:35:30;2.67;;;2.47;;
21825;SDS011;11075;47.944;11.776;2023-06-10T12:38:01;3.88;;;2.10;;
21825;SDS011;11075;47.944;11.776;2023-06-10T12:40:31;4.82;;;2.40;;
21825;SDS011;11075;47.944;11.776;2023-06-10T12:42:59;3.55;;;2.78;;
21825;SDS011;11075;47.944;11.776;2023-06-10T12:48:11;2.97;;;2.28;;
21825;SDS011;11075;47.944;11.776;2023-06-10T12:50:43;2.30;;;1.88;;
21825;SDS011;11075;47.944;11.776;2023-06-10T12:53:11;2.50;;;2.20;;
21825;SDS011;11075;47.944;11.776;2023-06-10T12:55:38;2.50;;;2.30;;
21825;SDS011;11075;47.944;11.776;2023-06-10T12:58:05;2.75;;;2.40;;
21825;SDS011;11075;47.944;11.776;2023-06-10T13:00:32;3.38;;;2.95;;
21825;SDS011;11075;47.944;11.776;2023-06-10T13:03:01;6.20;;;3.22;;
21825;SDS011;11075;47.944;11.776;2023-06-10T13:05:30;3.60;;;3.30;;
21825;SDS011;11075;47.944;11.776;2023-06-10T13:07:56;3.42;;;3.13;;
21825;SDS011;11075;47.944;11.776;2023-06-10T13:10:24;4.53;;;3.90;;
21825;SDS011;11075;47.944;11.776;2023-06-10T13:12:52;3.83;;;3.53;;
21825;SDS011;11075;47.944;11.776;2023-06-10T13:15:21;4.70;;;3.70;;
21825;SDS011;11075;47.944;11.776;2023-06-10T13:17:48;4.15;;;3.13;;
21825;SDS011;11075;47.944;11.776;2023-06-10T13:20:17;4.45;;;3.75;;
21825;SDS011;11075;47.944;11.776;2023-06-10T13:22:45;3.67;;;3.38;;
21825;SDS011;11075;47.944;11.776;2023-06-10T13:25:11;4.50;;;3.58;;
21825;SDS011;11075;47.944;11.776;2023-06-10T13:27:40;9.02;;;3.80;;
21825;SDS011;11075;47.944;11.776;2023-06-10T13:30:08;3.88;;;3.58;;
21825;SDS011;11075;47.944;11.776;2023-06-10T13:32:36;3.95;;;3.55;;
21825;SDS011;11075;47.944;11.776;2023-06-10T13:35:04;5.75;;;3.28;;
21825;SDS011;11075;47.944;11.776;2023-06-10T13:37:31;5.43;;;3.60;;
21825;SDS011;11075;47.944;11.776;2023-06-10T13:40:00;6.53;;;3.65;;
21825;SDS011;11075;47.944;11.776;2023-06-10T13:42:28;5.05;;;3.97;;
21825;SDS011;11075;47.944;11.776;2023-06-10T13:44:55;3.65;;;3.35;;
21825;SDS011;11075;47.944;11.776;2023-06-10T13:47:23;5.68;;;3.25;;
21825;SDS011;11075;47.944;11.776;2023-06-10T13:49:50;3.70;;;3.35;;
21825;SDS011;11075;47.944;11.776;2023-06-10T13:52:17;4.53;;;2.85;;
21825;SDS011;11075;47.944;11.776;2023-06-10T13:54:44;3.63;;;3.08;;
21825;SDS011;11075;47.944;11.776;2023-06-10T13:57:11;5.10;;;3.30;;
21825;SDS011;11075;47.944;11.776;2023-06-10T13:59:38;2.90;;;2.70;;
21825;SDS011;11075;47.944;11.776;2023-06-10T14:02:05;3.13;;;2.83;;
21825;SDS011;11075;47.944;11.776;2023-06-10T14:04:32;3.05;;;2.85;;
21825;SDS011;11075;47.944;11.776;2023-06-10T14:06:59;3.95;;;3.17;;
21825;SDS011;11075;47.944;11.776;2023-06-10T14:09:27;3.10;;;2.80;;
21825;SDS011;11075;47.944;11.776;2023-06-10T14:11:53;3.38;;;3.08;;
21825;SDS011;11075;47.944;11.776;2023-06-10T14:14:21;4.03;;;3.00;;
21825;SDS011;11075;47.944;11.776;2023-06-10T14:16:49;2.63;;;2.42;;
21825;SDS011;11075;47.944;11.776;2023-06-10T14:19:16;7.38;;;3.08;;
21825;SDS011;11075;47.944;11.776;2023-06-10T14:21:43;2.83;;;2.63;;
21825;SDS011;11075;47.944;11.776;2023-06-10T14:24:09;2.80;;;2.55;;
21825;SDS011;11075;47.944;11.776;2023-06-10T14:26:37;2.70;;;2.50;;
21825;SDS011;11075;47.944;11.776;2023-06-10T14:29:03;3.00;;;2.65;;
21825;SDS011;11075;47.944;11.776;2023-06-10T14:31:30;3.20;;;2.22;;
21825;SDS011;11075;47.944;11.776;2023-06-10T14:33:57;2.63;;;2.42;;
21825;SDS011;11075;47.944;11.776;2023-06-10T14:36:25;2.30;;;2.17;;
21825;SDS011;11075;47.944;11.776;2023-06-10T14:38:52;3.72;;;2.45;;
21825;SDS011;11075;47.944;11.776;2023-06-10T14:41:19;2.95;;;2.53;;
21825;SDS011;11075;47.944;11.776;2023-06-10T14:43:48;6.25;;;3.10;;
21825;SDS011;11075;47.944;11.776;2023-06-10T14:46:15;2.70;;;2.50;;
21825;SDS011;11075;47.944;11.776;2023-06-10T14:48:42;2.65;;;2.45;;
21825;SDS011;11075;47.944;11.776;2023-06-10T14:51:09;2.92;;;2.58;;
21825;SDS011;11075;47.944;11.776;2023-06-10T14:53:36;2.97;;;2.40;;
21825;SDS011;11075;47.944;11.776;2023-06-10T14:56:02;2.10;;;2.00;;
21825;SDS011;11075;47.944;11.776;2023-06-10T14:58:29;3.15;;;2.42;;
21825;SDS011;11075;47.944;11.776;2023-06-10T15:00:56;4.38;;;2.30;;
21825;SDS011;11075;47.944;11.776;2023-06-10T15:03:23;3.00;;;2.22;;
21825;SDS011;11075;47.944;11.776;2023-06-10T15:05:50;4.03;;;2.20;;